Archival Weather

Chicago O'Hare International

Chicago, Illinois (KORD)

Report from: Friday, December 23, 2022 7:51 PM CST
Current time: Monday, June 17, 2024 3:04 AM CDT

Current weather – Weather history – Daily summaries
Weather forecast

Present weatherLight snow, blowing snow
Temperature-18.3°C (-0.9°F)
Wind chill-30.6°C (-23.0°F)
Dew point-23.3°C (-9.9°F)
Winds 17 kts (8.7 m/s, 19.6 mph) West (270°)
Wind gusts 31 kts (15.9 m/s, 35.7 mph)
Peak wind 35 kts (18 m/s, 40.3 mph) West (270°) at 01:00
Visibility4 mi. (6.4 km)
Clouds Ceiling: Broken clouds 2,100 ft. (640 m)
Broken clouds 2,700 ft. (823 m)
Overcast 3,300 ft. (1,006 m)
Altimeter29.87 in.Hg (1012 mB)
PrecipitiationTrace
Precip. events Snow began 1:45 AM
Relative humidity65 %
Density altitude-4,228 ft. (-1,289 m)
Sea-level pressure101.3 kPa (1013 mB, 29.92 in.Hg)
Remarks System requires maintenance
Automated weather observing station with precipitation discriminator
Flight conditions Marginal Visual Meteorological Conditions
Raw dataKORD 240151Z 27017G31KT 4SM -SN BLSN BKN021 BKN027 OVC033 M18/M23 A2987 RMK AO2 PK WND 27035/0100 SNB45 SLP133 DRSN P0000 T11831233 $
An error has occurred. This application may no longer respond until reloaded. Reload 🗙